Terminal Aerodrome Forecast
Issued by NWS Topeka, KS

Home | Current Version | Previous Version | Graphics & Text | Print | Product List | Glossary On
Versions: 1 2 3 4 5 6 7 8 9 10 11 12 13 14 15 16 17 18 19 20
000
FTUS43 KTOP 141958 AAA
TAFTOP
TAF AMD
KTOP 141958Z 1420/1518 19012KT P6SM -TSRA SCT050CB BKN090
      TEMPO 1420/1421 3SM -TSRA BKN040CB
     FM142200 22012KT P6SM VCTS OVC040CB
      TEMPO 1423/1501 3SM -TSRA BKN025CB
     FM150200 32017G25KT P6SM VCSH BKN025
     FM150600 32014G22KT P6SM SCT030 SCT250
     FM151100 32010KT P6SM FEW250=

USA.gov is the U.S. government's official web portal to all federal, state and local government web resources and services.